createdAt,value
2019-03-29T00:01:42.992Z,33.15
2019-03-29T00:04:12.164Z,29.55
2019-03-29T00:06:41.318Z,32.38
2019-03-29T00:09:10.507Z,33.53
2019-03-29T00:11:39.653Z,31.62
2019-03-29T00:14:08.801Z,32.88
2019-03-29T00:16:37.965Z,34.25
2019-03-29T00:19:07.117Z,27.07
2019-03-29T00:21:36.296Z,25.92
2019-03-29T00:24:06.901Z,26.17
2019-03-29T00:26:36.338Z,27.35
2019-03-29T00:29:05.500Z,26.12
2019-03-29T00:31:34.669Z,32.13
2019-03-29T00:34:23.281Z,27.25
2019-03-29T00:36:52.464Z,25.55
2019-03-29T00:39:21.638Z,29.65
2019-03-29T00:41:50.973Z,33.18
2019-03-29T00:44:20.401Z,27.73
2019-03-29T00:46:49.582Z,28.67
2019-03-29T00:49:18.736Z,28.27
2019-03-29T00:51:50.362Z,30.68
2019-03-29T00:54:20.179Z,27.22
2019-03-29T00:56:49.366Z,32.55
2019-03-29T00:59:18.518Z,30.80
2019-03-29T01:01:47.853Z,27.20
2019-03-29T01:04:17.012Z,27.90
2019-03-29T01:06:46.169Z,29.25
2019-03-29T01:09:15.346Z,27.22
2019-03-29T01:11:44.499Z,26.30
2019-03-29T01:14:13.670Z,24.85
2019-03-29T01:16:42.898Z,21.55
2019-03-29T01:19:12.135Z,24.40
2019-03-29T01:21:41.296Z,23.22
2019-03-29T01:24:10.465Z,23.90
2019-03-29T01:26:39.635Z,22.60
2019-03-29T01:29:08.807Z,24.92
2019-03-29T01:31:37.951Z,22.40
2019-03-29T01:34:07.114Z,20.37
2019-03-29T01:36:36.296Z,24.47
2019-03-29T01:39:06.940Z,19.23
2019-03-29T01:41:36.104Z,27.27
2019-03-29T01:44:05.290Z,25.60
2019-03-29T01:46:34.566Z,26.55
2019-03-29T01:49:03.716Z,28.47
2019-03-29T01:51:32.873Z,25.85
2019-03-29T01:54:02.042Z,20.60
2019-03-29T01:56:31.230Z,22.98
2019-03-29T01:59:00.349Z,19.10
2019-03-29T02:01:29.555Z,18.80
2019-03-29T02:03:58.723Z,19.98
2019-03-29T02:06:27.890Z,22.07
2019-03-29T02:08:57.087Z,27.15
2019-03-29T02:11:27.980Z,22.42
2019-03-29T02:14:00.908Z,29.67
2019-03-29T02:16:34.397Z,21.82
2019-03-29T02:19:08.182Z,22.82
2019-03-29T02:21:39.440Z,30.35
2019-03-29T02:24:12.873Z,21.75
2019-03-29T02:26:45.313Z,21.95
2019-03-29T02:29:16.113Z,24.52
2019-03-29T02:31:51.485Z,21.07
2019-03-29T02:34:24.985Z,26.57
2019-03-29T02:36:56.883Z,31.20
2019-03-29T02:39:27.056Z,25.48
2019-03-29T02:44:25.293Z,21.95
2019-03-29T02:46:54.526Z,27.30
2019-03-29T02:49:23.700Z,25.00
2019-03-29T02:51:52.885Z,23.85
2019-03-29T02:54:22.072Z,19.25
2019-03-29T02:56:51.250Z,19.27
2019-03-29T02:59:20.388Z,20.90
2019-03-29T03:01:49.560Z,22.45
2019-03-29T03:04:18.738Z,18.87
2019-03-29T03:06:47.886Z,23.90
2019-03-29T03:09:17.071Z,28.47
2019-03-29T03:11:46.320Z,25.08
2019-03-29T03:14:15.511Z,27.87
2019-03-29T03:16:45.077Z,24.15
2019-03-29T03:19:14.209Z,28.23
2019-03-29T03:21:43.381Z,22.70
2019-03-29T03:24:12.528Z,24.10
2019-03-29T03:26:41.689Z,23.50
2019-03-29T03:29:10.874Z,29.20
2019-03-29T03:31:40.195Z,34.18
2019-03-29T03:34:09.379Z,36.53
2019-03-29T03:36:38.520Z,43.05
2019-03-29T03:39:08.778Z,46.98
2019-03-29T03:41:38.043Z,55.48
2019-03-29T03:44:07.686Z,41.63
2019-03-29T03:46:36.845Z,39.08
2019-03-29T03:49:06.002Z,40.50
2019-03-29T03:51:35.544Z,32.83
2019-03-29T03:54:04.725Z,34.92
2019-03-29T03:56:33.964Z,34.43
2019-03-29T03:59:03.132Z,30.62
2019-03-29T04:01:32.281Z,25.88
2019-03-29T04:04:01.438Z,27.37
2019-03-29T04:06:30.591Z,24.40
2019-03-29T04:08:59.859Z,29.70
2019-03-29T04:11:29.122Z,27.13
2019-03-29T04:13:58.346Z,27.70
2019-03-29T04:16:27.580Z,26.85
2019-03-29T04:18:56.744Z,29.90
2019-03-29T04:21:29.179Z,25.77
2019-03-29T04:24:07.359Z,32.38
2019-03-29T04:26:38.520Z,27.07
2019-03-29T04:29:13.916Z,23.52
2019-03-29T04:31:43.065Z,23.27
2019-03-29T04:34:14.696Z,22.20
2019-03-29T04:36:43.192Z,19.67
2019-03-29T04:39:22.121Z,19.98
2019-03-29T04:41:51.290Z,21.82
2019-03-29T04:44:20.452Z,18.98
2019-03-29T04:46:49.616Z,22.52
2019-03-29T04:49:18.796Z,19.95
2019-03-29T04:51:47.943Z,25.62
2019-03-29T04:54:20.390Z,18.55
2019-03-29T04:56:49.602Z,20.25
2019-03-29T04:59:18.794Z,22.02
2019-03-29T05:01:47.949Z,21.40
2019-03-29T05:04:17.212Z,19.37
2019-03-29T05:06:46.366Z,20.97
2019-03-29T05:09:15.518Z,20.45
2019-03-29T05:11:44.676Z,26.10
2019-03-29T05:14:13.844Z,31.57
2019-03-29T05:16:43.007Z,23.80
2019-03-29T05:19:12.161Z,24.75
2019-03-29T05:21:41.316Z,29.23
2019-03-29T05:24:10.474Z,30.45
2019-03-29T05:26:39.719Z,26.40
2019-03-29T05:29:08.925Z,29.48
2019-03-29T05:31:38.097Z,28.17
2019-03-29T05:34:07.259Z,27.17
2019-03-29T05:36:36.408Z,28.95
2019-03-29T05:39:07.442Z,29.30
2019-03-29T05:41:36.603Z,27.85
2019-03-29T05:44:05.755Z,26.87
2019-03-29T05:46:34.917Z,32.55
2019-03-29T05:49:04.099Z,33.63
2019-03-29T05:51:33.456Z,36.53
2019-03-29T05:54:02.613Z,29.75
2019-03-29T05:56:31.779Z,33.15
2019-03-29T05:59:01.003Z,32.10
2019-03-29T06:01:30.181Z,30.60
2019-03-29T06:03:59.328Z,27.95
2019-03-29T06:06:28.485Z,28.73
2019-03-29T06:09:00.381Z,37.00
2019-03-29T06:11:29.858Z,31.52
2019-03-29T06:14:03.286Z,28.45
2019-03-29T06:19:01.226Z,34.88
2019-03-29T06:21:30.367Z,32.83
2019-03-29T06:24:01.424Z,41.05
2019-03-29T06:26:30.581Z,36.63
2019-03-29T06:28:59.914Z,34.05
2019-03-29T06:31:29.098Z,41.37
2019-03-29T06:33:58.395Z,42.35
2019-03-29T06:36:27.887Z,48.78
2019-03-29T06:38:57.048Z,46.45
2019-03-29T06:41:26.191Z,48.00
2019-03-29T06:43:55.365Z,54.48
2019-03-29T06:46:24.540Z,55.98
2019-03-29T06:48:53.708Z,49.85
2019-03-29T06:51:23.228Z,66.17
2019-03-29T06:53:52.855Z,58.35
2019-03-29T06:56:22.326Z,52.80
2019-03-29T06:58:51.495Z,50.30
2019-03-29T07:01:20.687Z,56.15
2019-03-29T07:03:49.866Z,72.08
2019-03-29T07:06:19.097Z,70.52
2019-03-29T07:08:48.241Z,73.00
2019-03-29T07:11:19.021Z,75.50
2019-03-29T07:13:57.294Z,88.78
2019-03-29T07:16:19.118Z,85.28
2019-03-29T07:18:48.318Z,89.60
2019-03-29T07:21:21.697Z,97.10
2019-03-29T07:23:48.731Z,82.75
2019-03-29T07:26:17.895Z,85.15
2019-03-29T07:28:47.145Z,89.05
2019-03-29T07:31:16.290Z,85.67
2019-03-29T07:33:45.455Z,80.00
2019-03-29T07:36:14.605Z,85.92
2019-03-29T07:38:43.753Z,83.05
2019-03-29T07:41:12.913Z,80.95
2019-03-29T07:43:42.062Z,91.80
2019-03-29T07:46:11.218Z,85.17
2019-03-29T07:48:40.591Z,84.30
2019-03-29T07:51:10.015Z,87.10
2019-03-29T07:53:39.172Z,81.97
2019-03-29T07:56:08.327Z,84.77
2019-03-29T07:58:37.465Z,79.58
2019-03-29T08:01:06.635Z,85.77
2019-03-29T08:03:36.087Z,79.90
2019-03-29T08:06:05.315Z,77.17
2019-03-29T08:08:34.929Z,73.78
2019-03-29T08:11:06.243Z,76.22
2019-03-29T08:13:35.479Z,84.58
2019-03-29T08:16:06.643Z,72.97
2019-03-29T08:18:35.591Z,79.47
2019-03-29T08:21:04.758Z,83.25
2019-03-29T08:23:33.938Z,73.55
2019-03-29T08:26:03.093Z,77.55
2019-03-29T08:28:32.245Z,74.00
2019-03-29T08:31:01.490Z,73.02
2019-03-29T08:33:30.661Z,75.28
2019-03-29T08:35:59.828Z,76.92
2019-03-29T08:38:28.996Z,71.65
2019-03-29T08:40:58.216Z,66.53
2019-03-29T08:43:27.413Z,66.65
2019-03-29T08:45:57.747Z,69.10
2019-03-29T08:48:27.374Z,62.27
2019-03-29T08:50:56.550Z,62.08
2019-03-29T08:53:27.430Z,62.10
2019-03-29T08:55:56.670Z,58.02
2019-03-29T08:58:25.840Z,58.75
2019-03-29T09:00:55.116Z,55.00
2019-03-29T09:03:24.297Z,47.73
2019-03-29T09:05:53.734Z,52.30
2019-03-29T09:08:22.912Z,47.25
2019-03-29T09:10:52.085Z,48.50
2019-03-29T09:13:21.642Z,54.77
2019-03-29T09:15:50.814Z,53.20
2019-03-29T09:18:19.997Z,58.65
2019-03-29T09:20:50.801Z,59.30
2019-03-29T09:23:20.371Z,64.03
2019-03-29T09:25:49.677Z,59.63
2019-03-29T09:28:18.840Z,59.65
2019-03-29T09:30:48.008Z,56.20
2019-03-29T09:33:17.163Z,59.73
2019-03-29T09:35:46.582Z,57.73
2019-03-29T09:38:15.733Z,58.28
2019-03-29T09:40:53.495Z,55.95
2019-03-29T09:43:15.767Z,53.60
2019-03-29T09:45:44.920Z,50.60
2019-03-29T09:48:14.076Z,55.78
2019-03-29T09:50:47.510Z,43.17
2019-03-29T09:53:14.145Z,45.98
2019-03-29T09:55:45.692Z,44.55
2019-03-29T09:58:16.489Z,41.73
2019-03-29T10:00:45.160Z,44.70
2019-03-29T10:03:14.407Z,40.83
2019-03-29T10:05:44.027Z,40.10
2019-03-29T10:08:13.277Z,36.47
2019-03-29T10:10:42.472Z,35.78
2019-03-29T10:13:11.648Z,41.65
2019-03-29T10:15:40.873Z,51.68
2019-03-29T10:18:10.024Z,39.45
2019-03-29T10:20:39.204Z,33.48
2019-03-29T10:23:08.383Z,32.48
2019-03-29T10:25:37.594Z,34.65
2019-03-29T10:28:06.761Z,35.68
2019-03-29T10:30:39.901Z,33.65
2019-03-29T10:33:09.076Z,37.25
2019-03-29T10:35:50.899Z,36.60
2019-03-29T10:38:09.130Z,33.53
2019-03-29T10:40:38.390Z,38.83
2019-03-29T10:43:07.663Z,32.70
2019-03-29T10:45:40.321Z,33.70
2019-03-29T10:48:07.711Z,40.50
2019-03-29T10:50:36.874Z,29.18
2019-03-29T10:53:06.027Z,38.23
2019-03-29T10:55:35.346Z,34.20
2019-03-29T10:58:04.861Z,32.93
2019-03-29T11:00:40.001Z,35.43
2019-03-29T11:03:09.305Z,34.58
2019-03-29T11:05:38.630Z,34.23
2019-03-29T11:08:11.683Z,31.75
2019-03-29T11:10:40.177Z,35.83
2019-03-29T11:13:13.245Z,38.35
2019-03-29T11:15:40.711Z,29.77
2019-03-29T11:18:09.971Z,28.55
2019-03-29T11:20:39.127Z,25.60
2019-03-29T11:23:08.300Z,26.82
2019-03-29T11:25:37.639Z,22.02
2019-03-29T11:28:07.109Z,31.82
2019-03-29T11:30:42.468Z,30.12
2019-03-29T11:33:07.225Z,27.15
2019-03-29T11:35:36.467Z,25.15
2019-03-29T11:38:05.673Z,28.20
2019-03-29T11:40:34.844Z,28.38
2019-03-29T11:43:04.117Z,25.90
2019-03-29T11:45:33.371Z,24.90
2019-03-29T11:48:08.991Z,25.88
2019-03-29T11:50:34.298Z,29.48
2019-03-29T11:53:03.534Z,28.55
2019-03-29T11:55:32.678Z,26.48
2019-03-29T11:58:01.971Z,26.73
2019-03-29T12:00:36.497Z,23.35
2019-03-29T12:03:08.780Z,26.07
2019-03-29T12:05:36.698Z,26.07
2019-03-29T12:08:06.276Z,26.57
2019-03-29T12:10:35.741Z,29.27
2019-03-29T12:13:05.858Z,25.88
2019-03-29T12:15:35.058Z,22.85
2019-03-29T12:18:04.298Z,26.48
2019-03-29T12:20:33.514Z,26.07
2019-03-29T12:23:02.686Z,23.95
2019-03-29T12:25:31.953Z,24.70
2019-03-29T12:28:01.117Z,35.10
2019-03-29T12:30:32.116Z,25.62
2019-03-29T12:33:01.464Z,23.62
2019-03-29T12:35:30.631Z,23.85
2019-03-29T12:37:59.791Z,28.50
2019-03-29T12:40:28.960Z,26.25
2019-03-29T12:42:58.662Z,25.72
2019-03-29T12:45:27.832Z,24.98
2019-03-29T12:47:57.002Z,24.85
2019-03-29T12:50:26.542Z,27.55
2019-03-29T12:52:55.771Z,25.72
2019-03-29T12:55:24.933Z,27.75
2019-03-29T12:57:54.103Z,28.92
2019-03-29T13:00:23.264Z,23.60
2019-03-29T13:02:52.427Z,25.48
2019-03-29T13:05:21.813Z,26.05
2019-03-29T13:07:53.126Z,30.15
2019-03-29T13:10:22.386Z,30.00
2019-03-29T13:12:51.994Z,26.27
2019-03-29T13:15:21.142Z,24.40
2019-03-29T13:17:50.732Z,31.62
2019-03-29T13:20:19.967Z,26.37
2019-03-29T13:22:49.138Z,28.00
2019-03-29T13:25:18.360Z,24.85
2019-03-29T13:27:47.526Z,30.17
2019-03-29T13:30:17.441Z,31.75
2019-03-29T13:32:47.000Z,26.42
2019-03-29T13:35:16.290Z,27.15
2019-03-29T13:37:45.452Z,23.77
2019-03-29T13:40:14.611Z,22.40
2019-03-29T13:42:44.035Z,18.90
2019-03-29T13:45:13.276Z,21.25
2019-03-29T13:47:42.424Z,22.55
2019-03-29T13:50:11.658Z,24.00
2019-03-29T13:52:40.817Z,24.43
2019-03-29T13:55:09.993Z,23.25
2019-03-29T13:57:39.183Z,22.07
2019-03-29T14:00:11.490Z,27.07
2019-03-29T14:02:40.812Z,23.20
2019-03-29T14:05:10.438Z,23.30
2019-03-29T14:07:39.625Z,22.07
2019-03-29T14:10:08.860Z,26.93
2019-03-29T14:12:39.892Z,26.48
2019-03-29T14:15:12.181Z,24.90
2019-03-29T14:17:41.347Z,22.30
2019-03-29T14:20:12.040Z,24.10
2019-03-29T14:22:41.204Z,28.02
2019-03-29T14:25:10.473Z,26.25
2019-03-29T14:27:39.914Z,23.73
2019-03-29T14:30:09.076Z,28.27
2019-03-29T14:32:38.260Z,26.10
2019-03-29T14:35:09.067Z,25.45
2019-03-29T14:37:38.248Z,25.20
2019-03-29T14:40:08.532Z,28.65
2019-03-29T14:42:37.871Z,27.25
2019-03-29T14:45:08.125Z,32.85
2019-03-29T14:47:42.950Z,26.20
2019-03-29T14:50:10.449Z,21.40
2019-03-29T14:52:39.791Z,30.12
2019-03-29T14:55:09.290Z,25.25
2019-03-29T14:57:38.776Z,26.97
2019-03-29T15:00:11.459Z,28.67
2019-03-29T15:02:40.878Z,26.68
2019-03-29T15:05:10.189Z,25.85
2019-03-29T15:07:40.996Z,28.35
2019-03-29T15:10:23.852Z,24.72
2019-03-29T15:12:54.078Z,28.67
2019-03-29T15:15:23.229Z,27.95
2019-03-29T15:17:52.678Z,23.60
2019-03-29T15:20:22.151Z,29.05
2019-03-29T15:22:51.298Z,26.20
2019-03-29T15:25:20.452Z,28.25
2019-03-29T15:27:49.617Z,27.77
2019-03-29T15:30:18.976Z,27.95
2019-03-29T15:32:48.149Z,27.32
2019-03-29T15:35:17.299Z,32.40
2019-03-29T15:37:46.453Z,32.93
2019-03-29T15:40:15.633Z,29.15
2019-03-29T15:42:44.865Z,29.18
2019-03-29T15:45:20.366Z,28.73
2019-03-29T15:47:44.963Z,28.80
2019-03-29T15:50:14.524Z,28.00
2019-03-29T15:52:43.871Z,33.47
2019-03-29T15:55:13.030Z,30.85
2019-03-29T15:57:42.190Z,32.17
2019-03-29T16:00:11.619Z,29.80
2019-03-29T16:02:40.846Z,31.80
2019-03-29T16:05:10.097Z,29.45
2019-03-29T16:07:39.339Z,26.07
2019-03-29T16:10:08.757Z,23.90
2019-03-29T16:12:38.222Z,28.95
2019-03-29T16:15:08.148Z,21.65
2019-03-29T16:17:37.318Z,27.37
2019-03-29T16:20:07.649Z,27.07
2019-03-29T16:22:36.936Z,27.22
2019-03-29T16:25:07.774Z,23.05
2019-03-29T16:27:36.954Z,21.17
2019-03-29T16:30:09.139Z,18.25
2019-03-29T16:32:38.763Z,19.75
2019-03-29T16:35:08.080Z,19.40
2019-03-29T16:37:37.247Z,18.55
2019-03-29T16:40:07.350Z,19.30
2019-03-29T16:42:36.667Z,15.40
2019-03-29T16:45:08.038Z,22.87
2019-03-29T16:47:37.195Z,25.95
2019-03-29T16:50:08.203Z,17.12
2019-03-29T16:52:40.131Z,20.23
2019-03-29T16:55:13.426Z,14.20
2019-03-29T16:57:40.358Z,16.60
2019-03-29T17:00:13.006Z,19.87
2019-03-29T17:02:42.328Z,18.98
2019-03-29T17:05:11.962Z,40.92
2019-03-29T17:07:41.415Z,14.50
2019-03-29T17:10:10.853Z,21.55
2019-03-29T17:12:40.159Z,19.55
2019-03-29T17:15:09.384Z,15.68
2019-03-29T17:17:38.764Z,17.57
2019-03-29T17:20:09.568Z,15.48
2019-03-29T17:22:38.914Z,14.98
2019-03-29T17:25:08.521Z,14.13
2019-03-29T17:27:37.846Z,16.17
2019-03-29T17:30:08.734Z,17.05
2019-03-29T17:32:38.268Z,15.90
2019-03-29T17:35:08.774Z,19.07
2019-03-29T17:40:08.657Z,22.20
2019-03-29T17:42:38.226Z,23.87
2019-03-29T17:45:08.058Z,19.90
2019-03-29T17:47:37.301Z,23.32
2019-03-29T17:50:07.042Z,15.78
2019-03-29T17:52:36.251Z,15.88
2019-03-29T17:55:07.123Z,15.00
2019-03-29T17:57:36.470Z,21.60
2019-03-29T18:00:09.745Z,22.40
2019-03-29T18:02:38.954Z,28.27
2019-03-29T18:05:08.260Z,32.60
2019-03-29T18:07:37.433Z,46.42
2019-03-29T18:10:08.633Z,34.40
2019-03-29T18:12:37.824Z,28.92
2019-03-29T18:15:08.651Z,37.70
2019-03-29T18:17:37.791Z,22.17
2019-03-29T18:20:09.922Z,25.32
2019-03-29T18:22:39.139Z,21.55
2019-03-29T18:25:08.362Z,27.98
2019-03-29T18:27:37.892Z,22.20
2019-03-29T18:30:11.923Z,21.73
2019-03-29T18:32:41.091Z,25.65
2019-03-29T18:35:10.486Z,28.52
2019-03-29T18:37:40.092Z,29.05
2019-03-29T18:40:25.349Z,35.67
2019-03-29T18:42:57.094Z,25.90
2019-03-29T18:45:26.315Z,27.37
2019-03-29T18:47:55.662Z,25.60
2019-03-29T18:50:24.999Z,32.45
2019-03-29T18:52:54.184Z,25.25
2019-03-29T18:55:23.324Z,27.27
2019-03-29T18:57:52.563Z,25.32
2019-03-29T19:00:28.812Z,29.48
2019-03-29T19:02:58.119Z,26.70
2019-03-29T19:05:28.038Z,27.02
2019-03-29T19:07:57.216Z,25.48
2019-03-29T19:10:27.991Z,25.52
2019-03-29T19:12:57.157Z,26.25
2019-03-29T19:15:26.384Z,23.67
2019-03-29T19:17:55.680Z,38.33
2019-03-29T19:20:27.664Z,28.75
2019-03-29T19:22:55.775Z,26.82
2019-03-29T19:25:25.325Z,26.85
2019-03-29T19:27:54.645Z,31.90
2019-03-29T19:30:23.801Z,25.88
2019-03-29T19:32:53.090Z,26.85
2019-03-29T19:35:22.345Z,31.55
2019-03-29T19:37:51.497Z,26.50
2019-03-29T19:40:20.694Z,26.97
2019-03-29T19:42:49.845Z,28.77
2019-03-29T19:45:19.019Z,28.23
2019-03-29T19:47:48.180Z,31.85
2019-03-29T19:50:17.740Z,32.73
2019-03-29T19:52:47.216Z,34.98
2019-03-29T19:55:16.664Z,27.82
2019-03-29T19:57:46.630Z,33.08
2019-03-29T20:00:16.078Z,32.08
2019-03-29T20:02:45.305Z,36.58
2019-03-29T20:05:28.883Z,39.10
2019-03-29T20:07:58.089Z,33.90
2019-03-29T20:10:27.377Z,24.25
2019-03-29T20:12:56.790Z,25.82
2019-03-29T20:15:26.325Z,27.45
2019-03-29T20:17:55.483Z,31.07
2019-03-29T20:20:26.207Z,31.97
2019-03-29T20:22:58.359Z,29.60
2019-03-29T20:25:27.195Z,26.48
2019-03-29T20:27:58.382Z,30.10
2019-03-29T20:30:27.337Z,29.35
2019-03-29T20:32:56.628Z,27.60
2019-03-29T20:35:25.851Z,29.23
2019-03-29T20:37:55.074Z,28.10
2019-03-29T20:40:24.410Z,29.82
2019-03-29T20:42:53.582Z,30.62
2019-03-29T20:45:23.230Z,29.77
2019-03-29T20:47:52.424Z,30.20
2019-03-29T20:50:21.598Z,29.82
2019-03-29T20:52:50.837Z,29.50
2019-03-29T20:55:20.004Z,27.62
2019-03-29T20:57:49.442Z,26.27
2019-03-29T21:00:18.678Z,28.35
2019-03-29T21:02:47.835Z,28.92
2019-03-29T21:05:17.028Z,40.95
2019-03-29T21:07:46.172Z,27.10
2019-03-29T21:10:15.631Z,33.67
2019-03-29T21:12:45.337Z,33.05
2019-03-29T21:15:14.592Z,29.60
2019-03-29T21:17:56.007Z,37.80
2019-03-29T21:20:15.046Z,32.50
2019-03-29T21:22:44.226Z,33.30
2019-03-29T21:25:13.465Z,27.62
2019-03-29T21:27:42.700Z,28.27
2019-03-29T21:30:13.189Z,31.55
2019-03-29T21:32:42.486Z,32.13
2019-03-29T21:35:13.382Z,31.75
2019-03-29T21:37:42.677Z,33.50
2019-03-29T21:40:11.985Z,30.88
2019-03-29T21:42:41.175Z,28.67
2019-03-29T21:45:28.139Z,31.87
2019-03-29T21:47:46.192Z,28.57
2019-03-29T21:50:15.794Z,33.13
2019-03-29T21:52:45.733Z,31.60
2019-03-29T21:55:15.378Z,31.97
2019-03-29T21:57:44.689Z,42.35
2019-03-29T22:00:14.332Z,44.80
2019-03-29T22:02:43.896Z,35.70
2019-03-29T22:05:13.292Z,40.17
2019-03-29T22:07:42.443Z,37.40
2019-03-29T22:10:17.315Z,42.90
2019-03-29T22:12:56.798Z,34.65
2019-03-29T22:15:26.034Z,32.85
2019-03-29T22:17:55.185Z,38.63
2019-03-29T22:20:24.484Z,35.92
2019-03-29T22:22:53.934Z,31.87
2019-03-29T22:25:23.127Z,32.38
2019-03-29T22:27:52.532Z,43.02
2019-03-29T22:30:21.696Z,34.78
2019-03-29T22:32:50.845Z,34.73
2019-03-29T22:35:20.104Z,31.70
2019-03-29T22:37:49.258Z,38.73
2019-03-29T22:40:18.429Z,37.67
2019-03-29T22:42:47.642Z,32.03
2019-03-29T22:45:18.297Z,35.20
2019-03-29T22:50:16.562Z,34.20
2019-03-29T22:52:46.036Z,36.58
2019-03-29T22:55:15.214Z,42.98
2019-03-29T22:57:44.355Z,38.40
2019-03-29T23:00:18.539Z,43.23
2019-03-29T23:02:47.678Z,37.20
2019-03-29T23:05:16.838Z,38.25
2019-03-29T23:07:46.068Z,38.65
2019-03-29T23:10:15.235Z,42.43
2019-03-29T23:12:44.466Z,43.08
2019-03-29T23:15:13.862Z,43.08
2019-03-29T23:17:43.076Z,34.95
2019-03-29T23:20:12.262Z,48.42
2019-03-29T23:22:41.492Z,39.75
2019-03-29T23:25:10.668Z,42.73
2019-03-29T23:27:39.836Z,34.20
2019-03-29T23:30:09.927Z,37.40
2019-03-29T23:32:39.103Z,41.53
2019-03-29T23:35:08.326Z,38.08
2019-03-29T23:37:37.491Z,36.38
2019-03-29T23:40:06.674Z,35.92
2019-03-29T23:42:35.802Z,45.23
2019-03-29T23:45:07.606Z,37.17
2019-03-29T23:47:36.759Z,36.48
2019-03-29T23:50:06.222Z,32.70
2019-03-29T23:52:35.499Z,38.35
2019-03-29T23:55:06.088Z,42.33
